createdAt,value
2022-11-13T00:00:03.660Z,81.92
2022-11-13T00:00:12.220Z,81.88
2022-11-13T00:00:22.260Z,81.85
2022-11-13T00:00:33.143Z,81.92
2022-11-13T00:00:42.241Z,82.01
2022-11-13T00:00:53.671Z,81.98
2022-11-13T00:01:03.680Z,82.11
2022-11-13T00:01:12.226Z,82.11
2022-11-13T00:01:23.676Z,82.04
2022-11-13T00:01:32.212Z,82.21
2022-11-13T00:01:42.232Z,82.08
2022-11-13T00:01:52.205Z,82.17
2022-11-13T00:02:02.231Z,82.13
2022-11-13T00:02:12.265Z,82.19
2022-11-13T00:02:23.694Z,82.16
2022-11-13T00:02:32.216Z,82.24
2022-11-13T00:02:43.692Z,82.14
2022-11-13T00:02:53.199Z,82.20
2022-11-13T00:03:03.697Z,82.19
2022-11-13T00:03:12.192Z,82.16
2022-11-13T00:03:22.240Z,82.07
2022-11-13T00:03:33.641Z,82.07
2022-11-13T00:03:42.194Z,82.08
2022-11-13T00:03:52.207Z,81.98
2022-11-13T00:04:02.202Z,81.96
2022-11-13T00:04:12.207Z,81.97
2022-11-13T00:04:23.664Z,81.96
2022-11-13T00:04:32.220Z,81.93
2022-11-13T00:04:42.211Z,81.86
2022-11-13T00:04:52.200Z,81.85
2022-11-13T00:05:02.390Z,81.83
2022-11-13T00:05:13.632Z,81.90
2022-11-13T00:05:23.661Z,81.89
2022-11-13T00:05:33.641Z,81.89
2022-11-13T00:05:42.221Z,81.87
2022-11-13T00:05:52.263Z,81.80
2022-11-13T00:06:03.710Z,81.78
2022-11-13T00:06:12.211Z,81.86
2022-11-13T00:06:22.251Z,81.77
2022-11-13T00:06:32.172Z,81.80
2022-11-13T00:06:42.242Z,81.86
2022-11-13T00:06:57.876Z,81.85
2022-11-13T00:07:04.734Z,82.15
2022-11-13T00:07:14.743Z,82.07
2022-11-13T00:07:23.271Z,82.02
2022-11-13T00:07:33.222Z,81.93
2022-11-13T00:07:44.665Z,81.89
2022-11-13T00:07:53.211Z,81.99
2022-11-13T00:08:04.685Z,81.89
2022-11-13T00:08:14.651Z,81.93
2022-11-13T00:08:23.202Z,81.95
2022-11-13T00:08:34.645Z,81.80
2022-11-13T00:08:44.653Z,81.91
2022-11-13T00:08:54.017Z,81.88
2022-11-13T00:09:04.641Z,81.79
2022-11-13T00:09:14.663Z,81.81
2022-11-13T00:09:24.018Z,81.81
2022-11-13T00:09:34.072Z,81.78
2022-11-13T00:09:43.193Z,81.76
2022-11-13T00:09:54.653Z,81.74
2022-11-13T00:10:04.058Z,81.84
2022-11-13T00:10:14.642Z,81.75
2022-11-13T00:10:23.447Z,81.77
2022-11-13T00:10:33.973Z,81.70
2022-11-13T00:10:44.096Z,81.75
2022-11-13T00:10:54.139Z,81.78
2022-11-13T00:11:03.173Z,81.76
2022-11-13T00:11:14.634Z,81.76
2022-11-13T00:11:24.646Z,81.83
2022-11-13T00:11:33.343Z,81.81
2022-11-13T00:11:43.185Z,81.75
2022-11-13T00:11:54.132Z,81.74
2022-11-13T00:12:03.167Z,81.83
2022-11-13T00:12:13.188Z,81.78
2022-11-13T00:12:23.215Z,81.84
2022-11-13T00:12:34.176Z,81.87
2022-11-13T00:12:43.182Z,81.90
2022-11-13T00:12:53.224Z,81.90
2022-11-13T00:13:03.174Z,81.91
2022-11-13T00:13:13.190Z,81.92
2022-11-13T00:13:29.017Z,81.91
2022-11-13T00:13:34.113Z,82.20
2022-11-13T00:13:43.204Z,82.07
2022-11-13T00:13:53.163Z,82.02
2022-11-13T00:14:03.266Z,82.05
2022-11-13T00:14:14.615Z,82.01
2022-11-13T00:14:23.170Z,82.06
2022-11-13T00:14:34.632Z,81.96
2022-11-13T00:14:43.900Z,82.05
2022-11-13T00:14:53.174Z,81.99
2022-11-13T00:15:04.638Z,81.95
2022-11-13T00:15:14.624Z,82.09
2022-11-13T00:15:23.177Z,82.03
2022-11-13T00:15:33.174Z,82.02
2022-11-13T00:15:43.165Z,81.99
2022-11-13T00:15:54.614Z,82.06
2022-11-13T00:16:03.175Z,82.12
2022-11-13T00:16:14.625Z,82.01
2022-11-13T00:16:23.923Z,82.15
2022-11-13T00:16:34.602Z,82.08
2022-11-13T00:16:44.605Z,82.12
2022-11-13T00:16:54.594Z,82.08
2022-11-13T00:17:03.204Z,82.06
2022-11-13T00:17:13.160Z,81.93
2022-11-13T00:17:23.133Z,82.03
2022-11-13T00:17:34.605Z,82.05
2022-11-13T00:17:44.603Z,82.11
2022-11-13T00:17:54.613Z,82.09
2022-11-13T00:18:03.229Z,82.07
2022-11-13T00:18:13.133Z,81.91
2022-11-13T00:18:24.742Z,81.99
2022-11-13T00:18:34.593Z,82.01
2022-11-13T00:18:44.584Z,82.01
2022-11-13T00:18:54.584Z,81.99
2022-11-13T00:19:04.666Z,81.97
2022-11-13T00:19:14.595Z,81.96
2022-11-13T00:19:24.585Z,81.92
2022-11-13T00:19:34.084Z,81.93
2022-11-13T00:19:44.593Z,81.93
2022-11-13T00:19:53.147Z,81.92
2022-11-13T00:20:03.124Z,81.86
2022-11-13T00:20:14.584Z,81.90
2022-11-13T00:20:23.125Z,81.97
2022-11-13T00:20:34.575Z,81.86
2022-11-13T00:20:43.135Z,81.95
2022-11-13T00:20:53.144Z,81.91
2022-11-13T00:21:03.124Z,81.88
2022-11-13T00:21:14.597Z,81.93
2022-11-13T00:21:24.583Z,82.01
2022-11-13T00:21:34.573Z,81.96
2022-11-13T00:21:44.565Z,81.95
2022-11-13T00:21:53.135Z,82.01
2022-11-13T00:22:04.574Z,81.91
2022-11-13T00:22:14.575Z,82.09
2022-11-13T00:22:24.066Z,82.05
2022-11-13T00:22:33.125Z,82.06
2022-11-13T00:22:44.564Z,81.99
2022-11-13T00:22:53.105Z,82.17
2022-11-13T00:23:03.084Z,82.10
2022-11-13T00:23:13.097Z,82.07
2022-11-13T00:23:23.116Z,82.09
2022-11-13T00:23:33.114Z,82.09
2022-11-13T00:23:43.105Z,82.09
2022-11-13T00:23:54.564Z,82.11
2022-11-13T00:24:04.555Z,82.18
2022-11-13T00:24:14.044Z,82.17
2022-11-13T00:24:24.554Z,82.10
2022-11-13T00:24:34.534Z,82.17
2022-11-13T00:24:44.537Z,82.16
2022-11-13T00:24:53.126Z,82.11
2022-11-13T00:25:04.554Z,82.08
2022-11-13T00:25:13.096Z,82.20
2022-11-13T00:25:23.104Z,82.11
2022-11-13T00:25:33.754Z,82.16
2022-11-13T00:25:44.525Z,82.15
2022-11-13T00:25:53.104Z,82.21
2022-11-13T00:26:03.065Z,82.08
2022-11-13T00:26:13.095Z,82.11
2022-11-13T00:26:23.085Z,82.04
2022-11-13T00:26:34.584Z,82.08
2022-11-13T00:26:44.035Z,82.13
2022-11-13T00:26:53.117Z,82.09
2022-11-13T00:27:03.866Z,82.00
2022-11-13T00:27:14.530Z,82.01
2022-11-13T00:27:23.086Z,82.05
2022-11-13T00:27:33.875Z,81.96
2022-11-13T00:27:44.503Z,81.95
2022-11-13T00:27:53.075Z,82.01
2022-11-13T00:28:03.877Z,81.90
2022-11-13T00:28:14.535Z,81.96
2022-11-13T00:28:23.077Z,81.94
2022-11-13T00:28:33.094Z,81.89
2022-11-13T00:28:44.027Z,81.85
2022-11-13T00:28:54.547Z,81.90
2022-11-13T00:29:03.056Z,81.93
2022-11-13T00:29:14.538Z,81.81
2022-11-13T00:29:24.042Z,81.92
2022-11-13T00:29:33.085Z,81.86
2022-11-13T00:29:44.525Z,81.80
2022-11-13T00:29:53.076Z,81.88
2022-11-13T00:30:03.275Z,81.83
2022-11-13T00:30:19.102Z,81.82
2022-11-13T00:30:24.105Z,82.17
2022-11-13T00:30:34.125Z,82.01
2022-11-13T00:30:44.107Z,81.97
2022-11-13T00:30:54.115Z,81.95
2022-11-13T00:31:04.136Z,81.95
2022-11-13T00:31:14.118Z,81.94
2022-11-13T00:31:25.045Z,81.96
2022-11-13T00:31:35.548Z,81.96
2022-11-13T00:31:45.552Z,82.03
2022-11-13T00:31:54.098Z,81.96
2022-11-13T00:32:05.031Z,81.87
2022-11-13T00:32:15.559Z,81.94
2022-11-13T00:32:24.128Z,81.91
2022-11-13T00:32:35.566Z,81.88
2022-11-13T00:32:44.945Z,81.90
2022-11-13T00:32:54.106Z,81.82
2022-11-13T00:33:04.098Z,81.84
2022-11-13T00:33:26.517Z,81.88
2022-11-13T00:33:45.333Z,82.17
2022-11-13T00:34:33.594Z,82.54
2022-11-13T00:34:45.705Z,82.53
2022-11-13T00:34:46.660Z,82.58
2022-11-13T00:34:47.701Z,82.55
2022-11-13T00:34:48.885Z,82.62
2022-11-13T00:34:58.824Z,82.36
2022-11-13T00:35:10.290Z,82.24
2022-11-13T00:35:20.277Z,82.26
2022-11-13T00:35:28.817Z,82.21
2022-11-13T00:35:40.286Z,82.14
2022-11-13T00:35:48.866Z,82.15
2022-11-13T00:35:58.888Z,82.12
2022-11-13T00:36:08.838Z,82.13
2022-11-13T00:36:18.868Z,82.13
2022-11-13T00:36:28.811Z,82.16
2022-11-13T00:36:38.851Z,82.20
2022-11-13T00:36:48.878Z,82.20
2022-11-13T00:36:58.908Z,82.25
2022-11-13T00:37:08.846Z,82.26
2022-11-13T00:37:18.877Z,82.26
2022-11-13T00:37:28.914Z,82.29
2022-11-13T00:37:38.847Z,82.25
2022-11-13T00:37:48.877Z,82.33
2022-11-13T00:37:58.918Z,82.32
2022-11-13T00:38:08.846Z,82.39
2022-11-13T00:38:18.891Z,82.34
2022-11-13T00:38:29.242Z,82.38
2022-11-13T00:38:39.466Z,82.41
2022-11-13T00:38:48.886Z,82.36
2022-11-13T00:38:58.818Z,82.36
2022-11-13T00:39:08.796Z,82.36
2022-11-13T00:39:19.684Z,82.41
2022-11-13T00:39:28.818Z,82.48
2022-11-13T00:39:38.821Z,82.38
2022-11-13T00:39:50.266Z,82.38
2022-11-13T00:40:00.269Z,82.45
2022-11-13T00:40:08.795Z,82.47
2022-11-13T00:40:20.250Z,82.45
2022-11-13T00:40:28.818Z,82.54
2022-11-13T00:40:38.823Z,82.45
2022-11-13T00:40:48.797Z,82.43
2022-11-13T00:40:58.821Z,82.53
2022-11-13T00:41:08.814Z,82.57
2022-11-13T00:41:20.270Z,82.56
2022-11-13T00:41:28.778Z,82.64
2022-11-13T00:41:38.803Z,82.55
2022-11-13T00:41:50.229Z,82.66
2022-11-13T00:42:00.239Z,82.66
2022-11-13T00:42:10.227Z,82.61
2022-11-13T00:42:18.818Z,82.60
2022-11-13T00:42:30.217Z,82.61
2022-11-13T00:42:40.237Z,82.63
2022-11-13T00:42:48.776Z,82.64
2022-11-13T00:42:58.807Z,82.60
2022-11-13T00:43:10.242Z,82.67
2022-11-13T00:43:18.785Z,82.77
2022-11-13T00:43:28.787Z,82.69
2022-11-13T00:43:38.786Z,82.71
2022-11-13T00:43:48.767Z,82.74
2022-11-13T00:44:00.288Z,82.76
2022-11-13T00:44:10.216Z,82.91
2022-11-13T00:44:18.808Z,82.84
2022-11-13T00:44:28.798Z,82.82
2022-11-13T00:44:40.247Z,82.81
2022-11-13T00:44:50.227Z,82.90
2022-11-13T00:45:00.218Z,82.94
2022-11-13T00:45:09.717Z,82.91
2022-11-13T00:45:20.228Z,82.92
2022-11-13T00:45:30.218Z,82.91
2022-11-13T00:45:39.988Z,82.94
2022-11-13T00:45:48.770Z,82.90
2022-11-13T00:45:58.795Z,82.85
2022-11-13T00:46:08.767Z,82.88
2022-11-13T00:46:18.799Z,82.87
2022-11-13T00:46:29.751Z,82.86
2022-11-13T00:46:40.210Z,82.94
2022-11-13T00:46:49.728Z,82.90
2022-11-13T00:46:58.748Z,82.82
2022-11-13T00:47:09.688Z,82.79
2022-11-13T00:47:18.769Z,82.83
2022-11-13T00:47:30.198Z,82.77
2022-11-13T00:47:38.748Z,82.82
2022-11-13T00:47:48.748Z,82.76
2022-11-13T00:48:00.239Z,82.72
2022-11-13T00:48:08.744Z,82.78
2022-11-13T00:48:20.207Z,82.71
2022-11-13T00:48:30.496Z,82.74
2022-11-13T00:48:40.193Z,82.74
2022-11-13T00:48:50.193Z,82.67
2022-11-13T00:49:00.209Z,82.72
2022-11-13T00:49:10.189Z,82.67
2022-11-13T00:49:18.738Z,82.65
2022-11-13T00:49:30.250Z,82.58
2022-11-13T00:49:40.189Z,82.71
2022-11-13T00:49:49.694Z,82.67
2022-11-13T00:49:58.739Z,82.67
2022-11-13T00:50:08.757Z,82.60
2022-11-13T00:50:20.218Z,82.55
2022-11-13T00:50:29.678Z,82.71
2022-11-13T00:50:40.200Z,82.66
2022-11-13T00:50:50.181Z,82.67
2022-11-13T00:50:58.729Z,82.68
2022-11-13T00:51:10.181Z,82.60
2022-11-13T00:51:18.758Z,82.71
2022-11-13T00:51:28.709Z,82.63
2022-11-13T00:51:38.728Z,82.65
2022-11-13T00:51:49.689Z,82.69
2022-11-13T00:51:58.709Z,82.70
2022-11-13T00:52:10.169Z,82.65
2022-11-13T00:52:18.713Z,82.71
2022-11-13T00:52:28.918Z,82.60
2022-11-13T00:52:38.708Z,82.62
2022-11-13T00:52:48.709Z,82.59
2022-11-13T00:52:58.719Z,82.59
2022-11-13T00:53:10.718Z,82.54
2022-11-13T00:53:18.709Z,82.82
2022-11-13T00:53:28.729Z,82.68
2022-11-13T00:53:40.170Z,82.63
2022-11-13T00:53:48.699Z,82.65
2022-11-13T00:53:58.730Z,82.53
2022-11-13T00:54:10.159Z,82.53
2022-11-13T00:54:18.694Z,82.59
2022-11-13T00:54:28.712Z,82.54
2022-11-13T00:54:38.692Z,82.55
2022-11-13T00:54:50.160Z,82.54
2022-11-13T00:55:00.149Z,82.59
2022-11-13T00:55:08.701Z,82.53
2022-11-13T00:55:19.670Z,82.49
2022-11-13T00:55:28.721Z,82.54
2022-11-13T00:55:38.701Z,82.43
2022-11-13T00:55:50.160Z,82.50
2022-11-13T00:55:58.699Z,82.52
2022-11-13T00:56:08.696Z,82.41
2022-11-13T00:56:20.149Z,82.40
2022-11-13T00:56:30.129Z,82.42
2022-11-13T00:56:40.128Z,82.44
2022-11-13T00:56:48.690Z,82.39
2022-11-13T00:57:00.140Z,82.28
2022-11-13T00:57:08.702Z,82.40
2022-11-13T00:57:19.239Z,82.28
2022-11-13T00:57:30.109Z,82.34
2022-11-13T00:57:38.667Z,82.40
2022-11-13T00:57:50.140Z,82.29
2022-11-13T00:57:58.679Z,82.43
2022-11-13T00:58:08.688Z,82.36
2022-11-13T00:58:19.328Z,82.41
2022-11-13T00:58:30.380Z,82.46
2022-11-13T00:58:40.112Z,82.54
2022-11-13T00:58:49.590Z,82.56
2022-11-13T00:58:58.672Z,82.54
2022-11-13T00:59:10.130Z,82.53
2022-11-13T00:59:19.333Z,82.61
2022-11-13T00:59:28.651Z,82.57
2022-11-13T00:59:39.314Z,82.53
2022-11-13T00:59:50.111Z,82.67
2022-11-13T00:59:58.661Z,82.69
2022-11-13T01:00:08.661Z,82.63
2022-11-13T01:00:20.139Z,82.65
2022-11-13T01:00:28.671Z,82.79
2022-11-13T01:00:39.412Z,82.72
2022-11-13T01:00:48.651Z,82.77
2022-11-13T01:00:59.380Z,82.75
2022-11-13T01:01:10.193Z,82.81
2022-11-13T01:01:20.125Z,82.80
2022-11-13T01:01:28.727Z,82.78
2022-11-13T01:01:38.697Z,82.74
2022-11-13T01:01:50.164Z,82.85
2022-11-13T01:02:00.154Z,82.87
2022-11-13T01:02:10.101Z,82.87
2022-11-13T01:02:18.642Z,82.83
2022-11-13T01:02:30.100Z,82.78
2022-11-13T01:02:38.640Z,82.91
2022-11-13T01:02:50.101Z,82.85
2022-11-13T01:02:58.679Z,82.90
2022-11-13T01:03:08.621Z,82.82
2022-11-13T01:03:18.648Z,82.84
2022-11-13T01:03:28.621Z,82.81
2022-11-13T01:03:38.621Z,82.82
2022-11-13T01:03:48.651Z,82.76
2022-11-13T01:04:00.102Z,82.76
2022-11-13T01:04:08.622Z,82.86
2022-11-13T01:04:18.651Z,82.72
2022-11-13T01:04:28.642Z,82.77
2022-11-13T01:04:38.640Z,82.75
2022-11-13T01:04:48.848Z,82.78
2022-11-13T01:04:58.692Z,82.76
2022-11-13T01:05:08.731Z,82.74
2022-11-13T01:05:18.661Z,82.79
2022-11-13T01:05:28.700Z,82.76
2022-11-13T01:05:38.732Z,82.75
2022-11-13T01:05:48.619Z,82.74
2022-11-13T01:05:58.712Z,82.75
2022-11-13T01:06:08.723Z,82.76
2022-11-13T01:06:18.615Z,82.77
2022-11-13T01:06:30.076Z,82.79
2022-11-13T01:06:40.144Z,82.91
2022-11-13T01:06:48.825Z,82.80
2022-11-13T01:06:58.629Z,82.76
2022-11-13T01:07:10.136Z,82.75
2022-11-13T01:07:18.658Z,82.85
2022-11-13T01:07:29.521Z,82.79
2022-11-13T01:07:38.611Z,82.84
2022-11-13T01:07:48.612Z,82.76
2022-11-13T01:07:58.642Z,82.80
2022-11-13T01:08:10.043Z,82.79
2022-11-13T01:08:20.052Z,82.80
2022-11-13T01:08:28.979Z,82.82
2022-11-13T01:08:40.062Z,82.75
2022-11-13T01:08:48.610Z,82.80
2022-11-13T01:08:58.593Z,82.72
2022-11-13T01:09:10.061Z,82.75
2022-11-13T01:09:20.052Z,82.80
2022-11-13T01:09:30.061Z,82.72
2022-11-13T01:09:39.542Z,82.71
2022-11-13T01:09:48.611Z,82.66
2022-11-13T01:09:58.602Z,82.65
2022-11-13T01:10:08.592Z,82.69
2022-11-13T01:10:18.762Z,82.65
2022-11-13T01:10:30.051Z,82.71
2022-11-13T01:10:38.590Z,82.77
2022-11-13T01:10:53.127Z,82.70
2022-11-13T01:10:58.589Z,82.98
2022-11-13T01:11:10.031Z,82.87
2022-11-13T01:11:20.031Z,82.92
2022-11-13T01:11:30.042Z,82.90
2022-11-13T01:11:38.576Z,82.92
2022-11-13T01:11:50.034Z,82.76
2022-11-13T01:12:00.012Z,82.93
2022-11-13T01:12:10.027Z,82.95
2022-11-13T01:12:19.572Z,82.90
2022-11-13T01:12:28.591Z,82.87
2022-11-13T01:12:40.021Z,82.85
2022-11-13T01:12:50.012Z,82.99
2022-11-13T01:12:58.553Z,82.97
2022-11-13T01:13:10.033Z,82.90
2022-11-13T01:13:18.552Z,82.99
2022-11-13T01:13:30.022Z,82.95
2022-11-13T01:13:38.592Z,83.02
2022-11-13T01:13:49.430Z,82.95
2022-11-13T01:13:58.975Z,83.03
2022-11-13T01:14:08.553Z,83.03
2022-11-13T01:14:20.012Z,83.03
2022-11-13T01:14:30.005Z,83.12
2022-11-13T01:14:39.523Z,83.08
2022-11-13T01:14:48.593Z,83.09
2022-11-13T01:14:59.983Z,83.01
2022-11-13T01:15:09.103Z,83.07
2022-11-13T01:15:19.032Z,83.08
2022-11-13T01:15:29.069Z,83.07
2022-11-13T01:15:38.533Z,83.08
2022-11-13T01:15:50.011Z,83.04
2022-11-13T01:15:59.992Z,83.16
2022-11-13T01:16:08.886Z,83.09
2022-11-13T01:16:19.140Z,82.99
2022-11-13T01:16:29.183Z,83.04
2022-11-13T01:16:38.540Z,82.99
2022-11-13T01:16:48.562Z,82.96
2022-11-13T01:16:58.561Z,82.99
2022-11-13T01:17:08.562Z,83.01
2022-11-13T01:17:19.993Z,82.96
2022-11-13T01:17:29.994Z,82.96
2022-11-13T01:17:39.224Z,82.92
2022-11-13T01:17:48.535Z,82.90
2022-11-13T01:17:59.983Z,82.89
2022-11-13T01:18:08.549Z,82.91
2022-11-13T01:18:20.003Z,82.89
2022-11-13T01:18:28.863Z,82.92
2022-11-13T01:18:38.550Z,82.89
2022-11-13T01:18:48.543Z,82.84
2022-11-13T01:18:59.983Z,82.86
2022-11-13T01:19:09.508Z,82.86
2022-11-13T01:19:19.053Z,82.84
2022-11-13T01:19:28.623Z,82.83
2022-11-13T01:19:39.963Z,82.80
2022-11-13T01:19:49.984Z,82.92
2022-11-13T01:19:58.523Z,82.88
2022-11-13T01:20:08.533Z,82.83
2022-11-13T01:20:19.983Z,82.77
2022-11-13T01:20:29.987Z,82.83
2022-11-13T01:20:39.955Z,82.77
2022-11-13T01:20:49.463Z,82.78
2022-11-13T01:20:58.515Z,82.79
2022-11-13T01:21:08.521Z,82.71
2022-11-13T01:21:18.528Z,82.78
2022-11-13T01:21:28.554Z,82.76
2022-11-13T01:21:38.516Z,82.70
2022-11-13T01:21:49.964Z,82.76
2022-11-13T01:21:58.494Z,82.83
2022-11-13T01:22:08.526Z,82.74
2022-11-13T01:22:18.526Z,82.72
2022-11-13T01:22:28.513Z,82.75
2022-11-13T01:22:38.542Z,82.78
2022-11-13T01:22:48.504Z,82.78
2022-11-13T01:22:58.504Z,82.81
2022-11-13T01:23:08.525Z,82.76
2022-11-13T01:23:18.527Z,82.77
2022-11-13T01:23:28.514Z,82.80
2022-11-13T01:23:39.954Z,82.81
2022-11-13T01:23:49.958Z,82.87
2022-11-13T01:23:58.494Z,82.78
2022-11-13T01:24:09.954Z,82.76
2022-11-13T01:24:18.486Z,82.87
2022-11-13T01:24:29.954Z,82.73
2022-11-13T01:24:38.482Z,82.83
2022-11-13T01:24:49.955Z,82.77
2022-11-13T01:24:59.383Z,82.94
2022-11-13T01:25:08.494Z,82.86
2022-11-13T01:25:18.495Z,82.81
2022-11-13T01:25:28.525Z,82.90
2022-11-13T01:25:39.954Z,82.91
2022-11-13T01:25:48.485Z,82.94
2022-11-13T01:25:58.514Z,82.83
2022-11-13T01:26:09.925Z,82.90
2022-11-13T01:26:18.475Z,82.97
2022-11-13T01:26:29.965Z,82.90
2022-11-13T01:26:38.472Z,82.97
2022-11-13T01:26:49.924Z,82.89
2022-11-13T01:26:58.465Z,83.02
2022-11-13T01:27:08.486Z,82.95
2022-11-13T01:27:19.414Z,82.95
2022-11-13T01:27:28.474Z,83.02
2022-11-13T01:27:39.934Z,83.02
2022-11-13T01:27:49.925Z,83.09
2022-11-13T01:27:58.466Z,83.11
2022-11-13T01:28:08.465Z,82.98
2022-11-13T01:28:18.553Z,83.04
2022-11-13T01:28:28.740Z,83.03
2022-11-13T01:28:38.474Z,83.13
2022-11-13T01:28:49.929Z,83.09
2022-11-13T01:28:58.745Z,83.13
2022-11-13T01:29:09.895Z,83.14
2022-11-13T01:29:19.224Z,83.25
2022-11-13T01:29:29.918Z,83.12
2022-11-13T01:29:38.886Z,83.20
2022-11-13T01:29:48.446Z,83.16
2022-11-13T01:29:59.918Z,83.20
2022-11-13T01:30:08.473Z,83.27
2022-11-13T01:30:18.925Z,83.20
2022-11-13T01:30:28.862Z,83.26
2022-11-13T01:30:38.836Z,83.27
2022-11-13T01:30:48.933Z,83.29
2022-11-13T01:30:58.868Z,83.30
2022-11-13T01:31:08.606Z,83.31
2022-11-13T01:31:18.934Z,83.33
2022-11-13T01:31:29.878Z,83.38
2022-11-13T01:31:38.437Z,83.45
2022-11-13T01:31:48.475Z,83.39
2022-11-13T01:31:58.976Z,83.36
2022-11-13T01:32:08.596Z,83.47
2022-11-13T01:32:18.435Z,83.46
2022-11-13T01:32:28.983Z,83.40
2022-11-13T01:32:38.906Z,83.45
2022-11-13T01:32:49.046Z,83.47
2022-11-13T01:32:58.436Z,83.46
2022-11-13T01:33:08.464Z,83.40
2022-11-13T01:33:18.743Z,83.44
2022-11-13T01:33:29.865Z,83.47
2022-11-13T01:33:39.925Z,83.45
2022-11-13T01:33:49.906Z,83.45
2022-11-13T01:33:58.414Z,83.38
2022-11-13T01:34:08.814Z,83.37
2022-11-13T01:34:18.434Z,83.38
2022-11-13T01:34:28.445Z,83.41
2022-11-13T01:34:39.877Z,83.35
2022-11-13T01:34:48.436Z,83.46
2022-11-13T01:34:58.432Z,83.39
2022-11-13T01:35:08.436Z,83.35
2022-11-13T01:35:18.476Z,83.62
2022-11-13T01:35:28.405Z,83.48
2022-11-13T01:35:38.416Z,83.44
2022-11-13T01:35:49.856Z,83.33
2022-11-13T01:35:58.477Z,83.39
2022-11-13T01:36:08.527Z,83.30
2022-11-13T01:36:18.464Z,83.24
2022-11-13T01:36:28.516Z,83.23
2022-11-13T01:36:38.559Z,83.27
2022-11-13T01:36:48.396Z,83.19
2022-11-13T01:36:58.506Z,83.23
2022-11-13T01:37:08.387Z,83.17
2022-11-13T01:37:18.416Z,83.21
2022-11-13T01:37:28.611Z,83.19
2022-11-13T01:37:38.537Z,83.17
2022-11-13T01:37:48.399Z,83.16
2022-11-13T01:38:00.506Z,83.09
2022-11-13T01:38:09.856Z,83.18
2022-11-13T01:38:18.407Z,83.15
2022-11-13T01:38:34.288Z,83.05
2022-11-13T01:38:40.936Z,83.39
2022-11-13T01:38:49.438Z,83.31
2022-11-13T01:39:00.910Z,83.24
2022-11-13T01:39:09.427Z,83.19
2022-11-13T01:39:19.436Z,83.13
2022-11-13T01:39:29.435Z,83.03
2022-11-13T01:39:40.886Z,83.09
2022-11-13T01:39:49.437Z,83.13
2022-11-13T01:40:00.879Z,82.98
2022-11-13T01:40:10.877Z,83.12
2022-11-13T01:40:20.878Z,83.05
2022-11-13T01:40:29.466Z,83.08
2022-11-13T01:40:40.878Z,83.01
2022-11-13T01:40:50.866Z,83.09
2022-11-13T01:41:00.406Z,83.06
2022-11-13T01:41:10.366Z,83.05
2022-11-13T01:41:23.359Z,83.05
2022-11-13T01:41:30.866Z,83.25
2022-11-13T01:41:39.431Z,83.28
2022-11-13T01:41:50.327Z,83.10
2022-11-13T01:42:00.888Z,83.15
2022-11-13T01:42:09.427Z,83.16
2022-11-13T01:42:19.426Z,83.09
2022-11-13T01:42:30.870Z,83.10
2022-11-13T01:42:39.497Z,83.14
2022-11-13T01:42:49.397Z,83.09
2022-11-13T01:42:59.439Z,83.00
2022-11-13T01:43:10.865Z,83.06
2022-11-13T01:43:20.858Z,83.13
2022-11-13T01:43:29.393Z,83.10
2022-11-13T01:43:40.859Z,83.04
2022-11-13T01:43:49.536Z,83.15
2022-11-13T01:43:59.571Z,83.04
2022-11-13T01:44:09.515Z,83.02
2022-11-13T01:44:19.544Z,83.04
2022-11-13T01:44:29.568Z,83.06
2022-11-13T01:44:39.609Z,83.04
2022-11-13T01:44:49.537Z,83.00
2022-11-13T01:44:59.575Z,83.01
2022-11-13T01:45:09.609Z,83.03
2022-11-13T01:45:19.649Z,83.02
2022-11-13T01:45:29.598Z,83.06
2022-11-13T01:45:39.696Z,83.04
2022-11-13T01:45:49.648Z,83.03
2022-11-13T01:45:59.700Z,82.98
2022-11-13T01:46:09.368Z,82.99
2022-11-13T01:46:19.552Z,83.08
2022-11-13T01:46:29.687Z,83.06
2022-11-13T01:46:39.697Z,83.06
2022-11-13T01:46:49.658Z,83.05
2022-11-13T01:46:59.690Z,83.04
2022-11-13T01:47:09.359Z,83.07
2022-11-13T01:47:20.864Z,83.07
2022-11-13T01:47:30.827Z,83.15
2022-11-13T01:47:39.378Z,83.10
2022-11-13T01:47:50.884Z,83.07
2022-11-13T01:47:59.377Z,83.12
2022-11-13T01:48:09.391Z,83.07
2022-11-13T01:48:19.376Z,83.12
2022-11-13T01:48:30.531Z,83.11
2022-11-13T01:48:39.398Z,83.21
2022-11-13T01:48:50.818Z,83.19
2022-11-13T01:48:59.378Z,83.26
2022-11-13T01:49:09.378Z,83.25
2022-11-13T01:49:20.827Z,83.23
2022-11-13T01:49:29.350Z,83.35
2022-11-13T01:49:39.368Z,83.25
2022-11-13T01:49:49.379Z,83.27
2022-11-13T01:50:00.837Z,83.31
2022-11-13T01:50:09.382Z,83.35
2022-11-13T01:50:20.338Z,83.31
2022-11-13T01:50:30.813Z,83.33
2022-11-13T01:50:40.308Z,83.35
2022-11-13T01:50:50.799Z,83.30
2022-11-13T01:50:59.350Z,83.34
2022-11-13T01:51:10.809Z,83.26
2022-11-13T01:51:20.804Z,83.36
2022-11-13T01:51:29.349Z,83.33
2022-11-13T01:51:40.808Z,83.25
2022-11-13T01:51:50.790Z,83.38
2022-11-13T01:52:00.308Z,83.35
2022-11-13T01:52:10.798Z,83.34
2022-11-13T01:52:20.788Z,83.39
2022-11-13T01:52:29.329Z,83.40
2022-11-13T01:52:39.348Z,83.30
2022-11-13T01:52:50.788Z,83.36
2022-11-13T01:52:59.630Z,83.42
2022-11-13T01:53:09.668Z,83.35
2022-11-13T01:53:19.320Z,83.37
2022-11-13T01:53:29.356Z,83.34
2022-11-13T01:53:39.581Z,83.35
2022-11-13T01:53:50.819Z,83.37
2022-11-13T01:54:00.799Z,83.42
2022-11-13T01:54:10.789Z,83.39
2022-11-13T01:54:19.339Z,83.35
2022-11-13T01:54:30.804Z,83.18
2022-11-13T01:54:40.283Z,83.30
2022-11-13T01:54:50.771Z,83.27
2022-11-13T01:54:59.331Z,83.27
2022-11-13T01:55:10.781Z,83.22
2022-11-13T01:55:19.319Z,83.28
2022-11-13T01:55:29.319Z,83.21
2022-11-13T01:55:40.789Z,83.28
2022-11-13T01:55:49.320Z,83.33
2022-11-13T01:56:00.780Z,83.22
2022-11-13T01:56:09.318Z,83.40
2022-11-13T01:56:20.799Z,83.20
2022-11-13T01:56:30.759Z,83.29
2022-11-13T01:56:39.311Z,83.30
2022-11-13T01:56:49.329Z,83.29
2022-11-13T01:56:59.651Z,83.24
2022-11-13T01:57:10.740Z,83.33
2022-11-13T01:57:20.764Z,83.37
2022-11-13T01:57:29.298Z,83.31
2022-11-13T01:57:39.321Z,83.26
2022-11-13T01:57:49.300Z,83.30
2022-11-13T01:58:00.769Z,83.27
2022-11-13T01:58:10.740Z,83.42
2022-11-13T01:58:20.769Z,83.42
2022-11-13T01:58:29.601Z,83.32
2022-11-13T01:58:39.330Z,83.23
2022-11-13T01:58:50.809Z,83.26
2022-11-13T01:59:00.771Z,83.32
2022-11-13T01:59:10.750Z,83.29
2022-11-13T01:59:20.752Z,83.25
2022-11-13T01:59:29.307Z,83.25
2022-11-13T01:59:40.764Z,83.22
2022-11-13T01:59:49.309Z,83.23
2022-11-13T01:59:59.299Z,83.14
2022-11-13T02:00:09.282Z,83.22
2022-11-13T02:00:19.306Z,83.18
2022-11-13T02:00:30.742Z,83.11
2022-11-13T02:00:40.729Z,83.24
2022-11-13T02:00:49.282Z,83.14
2022-11-13T02:01:00.739Z,83.07
2022-11-13T02:01:09.277Z,83.12
2022-11-13T02:01:20.804Z,83.04
2022-11-13T02:01:29.327Z,83.13
2022-11-13T02:01:39.332Z,82.98
2022-11-13T02:01:50.771Z,83.02
2022-11-13T02:01:59.333Z,83.09
2022-11-13T02:02:10.797Z,83.03
2022-11-13T02:02:19.285Z,83.11
2022-11-13T02:02:30.709Z,82.95
2022-11-13T02:02:39.285Z,83.00
2022-11-13T02:02:50.731Z,82.98
2022-11-13T02:03:00.723Z,83.06
2022-11-13T02:03:09.266Z,83.05
2022-11-13T02:03:19.302Z,82.89
2022-11-13T02:03:30.699Z,82.91
2022-11-13T02:03:40.047Z,82.94
2022-11-13T02:03:50.711Z,82.93
2022-11-13T02:04:00.731Z,82.94
2022-11-13T02:04:10.702Z,82.92
2022-11-13T02:04:20.712Z,82.92
2022-11-13T02:04:30.722Z,82.91
2022-11-13T02:04:39.251Z,82.89
2022-11-13T02:04:50.169Z,82.78
2022-11-13T02:04:59.274Z,82.92
2022-11-13T02:05:09.272Z,82.91
2022-11-13T02:05:19.275Z,82.88
2022-11-13T02:05:29.250Z,82.83
2022-11-13T02:05:39.262Z,82.90
2022-11-13T02:05:49.250Z,82.85
2022-11-13T02:05:59.242Z,82.89
2022-11-13T02:06:10.712Z,82.94
2022-11-13T02:06:19.251Z,83.00
2022-11-13T02:06:30.011Z,82.92
2022-11-13T02:06:39.290Z,83.01
2022-11-13T02:06:50.798Z,82.95
2022-11-13T02:06:59.287Z,83.05
2022-11-13T02:07:10.736Z,82.96
2022-11-13T02:07:20.716Z,83.03
2022-11-13T02:07:30.671Z,83.05
2022-11-13T02:07:40.681Z,83.07
2022-11-13T02:07:50.699Z,83.03
2022-11-13T02:07:59.250Z,83.08
2022-11-13T02:08:10.101Z,82.98
2022-11-13T02:08:20.691Z,83.06
2022-11-13T02:08:31.074Z,83.08
2022-11-13T02:08:39.243Z,83.15
2022-11-13T02:08:49.241Z,83.02
2022-11-13T02:09:00.702Z,83.05
2022-11-13T02:09:09.230Z,83.15
2022-11-13T02:09:20.702Z,83.01